createdAt,value
2022-08-26T00:01:55.955Z,100.00
2022-08-26T00:04:23.633Z,100.00
2022-08-26T00:06:50.419Z,100.00
2022-08-26T00:09:16.953Z,100.00
2022-08-26T00:11:46.018Z,100.00
2022-08-26T00:14:14.157Z,100.00
2022-08-26T00:16:41.063Z,100.00
2022-08-26T00:19:14.886Z,100.00
2022-08-26T00:21:41.373Z,100.00
2022-08-26T00:24:07.791Z,100.00
2022-08-26T00:26:34.915Z,100.00
2022-08-26T00:29:01.611Z,100.00
2022-08-26T00:31:28.729Z,100.00
2022-08-26T00:33:57.835Z,100.00
2022-08-26T00:36:24.279Z,100.00
2022-08-26T00:38:51.021Z,100.00
2022-08-26T00:41:21.093Z,100.00
2022-08-26T00:43:48.159Z,100.00
2022-08-26T00:46:21.821Z,100.00
2022-08-26T00:48:50.927Z,100.00
2022-08-26T00:51:19.271Z,100.00
2022-08-26T00:53:47.346Z,100.00
2022-08-26T00:56:32.317Z,100.00
2022-08-26T00:58:59.315Z,100.00
2022-08-26T01:01:28.197Z,100.00
2022-08-26T01:03:57.175Z,100.00
2022-08-26T01:06:23.734Z,100.00
2022-08-26T01:08:51.337Z,100.00
2022-08-26T01:11:17.800Z,100.00
2022-08-26T01:13:45.039Z,100.00
2022-08-26T01:16:13.374Z,100.00
2022-08-26T01:18:40.578Z,100.00
2022-08-26T01:21:25.823Z,100.00
2022-08-26T01:23:52.288Z,100.00
2022-08-26T01:26:30.086Z,100.00
2022-08-26T01:28:58.086Z,100.00
2022-08-26T01:31:28.401Z,100.00
2022-08-26T01:34:01.097Z,100.00
2022-08-26T01:36:27.965Z,100.00
2022-08-26T01:38:54.387Z,100.00
2022-08-26T01:41:27.496Z,100.00
2022-08-26T01:43:56.147Z,100.00
2022-08-26T01:46:23.007Z,100.00
2022-08-26T01:48:52.325Z,100.00
2022-08-26T01:51:20.922Z,100.00
2022-08-26T01:53:47.571Z,100.00
2022-08-26T01:56:14.077Z,100.00
2022-08-26T01:58:45.866Z,100.00
2022-08-26T02:01:13.375Z,100.00
2022-08-26T02:03:44.660Z,100.00
2022-08-26T02:06:11.146Z,100.00
2022-08-26T02:08:41.397Z,100.00
2022-08-26T02:11:07.833Z,100.00
2022-08-26T02:13:35.157Z,100.00
2022-08-26T02:16:01.687Z,100.00
2022-08-26T02:18:28.836Z,100.00
2022-08-26T02:20:55.480Z,100.00
2022-08-26T02:23:24.381Z,100.00
2022-08-26T02:25:54.423Z,100.00
2022-08-26T02:28:20.884Z,100.00
2022-08-26T02:30:55.428Z,100.00
2022-08-26T02:33:22.133Z,100.00
2022-08-26T02:35:48.723Z,100.00
2022-08-26T02:38:15.173Z,100.00
2022-08-26T02:40:42.178Z,100.00
2022-08-26T02:43:08.837Z,100.00
2022-08-26T02:45:35.929Z,100.00
2022-08-26T02:48:05.469Z,100.00
2022-08-26T02:50:32.284Z,100.00
2022-08-26T02:52:58.725Z,100.00
2022-08-26T02:55:25.590Z,100.00
2022-08-26T02:57:52.461Z,100.00
2022-08-26T03:00:18.961Z,100.00
2022-08-26T03:02:45.826Z,100.00
2022-08-26T03:05:12.285Z,100.00
2022-08-26T03:07:39.099Z,100.00
2022-08-26T03:10:08.499Z,100.00
2022-08-26T03:12:35.586Z,100.00
2022-08-26T03:15:03.481Z,100.00
2022-08-26T03:17:44.510Z,100.00
2022-08-26T03:20:11.157Z,100.00
2022-08-26T03:22:40.166Z,100.00
2022-08-26T03:25:07.659Z,100.00
2022-08-26T03:27:34.136Z,100.00
2022-08-26T03:30:19.387Z,100.00
2022-08-26T03:32:46.543Z,100.00
2022-08-26T03:35:12.972Z,100.00
2022-08-26T03:37:40.437Z,100.00
2022-08-26T03:40:09.023Z,100.00
2022-08-26T03:42:36.584Z,100.00
2022-08-26T03:45:03.594Z,100.00
2022-08-26T03:47:30.769Z,100.00
2022-08-26T03:49:57.363Z,100.00
2022-08-26T03:52:24.313Z,100.00
2022-08-26T03:54:51.223Z,100.00
2022-08-26T03:57:17.664Z,100.00
2022-08-26T03:59:45.760Z,100.00
2022-08-26T04:02:12.207Z,100.00
2022-08-26T04:04:38.646Z,100.00
2022-08-26T04:07:05.172Z,100.00
2022-08-26T04:09:31.786Z,100.00
2022-08-26T04:12:02.435Z,100.00
2022-08-26T04:14:29.874Z,100.00
2022-08-26T04:16:56.641Z,100.00
2022-08-26T04:19:24.211Z,100.00
2022-08-26T04:21:53.584Z,100.00
2022-08-26T04:24:23.907Z,100.00
2022-08-26T04:26:50.392Z,100.00
2022-08-26T04:29:19.620Z,100.00
2022-08-26T04:31:48.171Z,100.00
2022-08-26T04:34:14.620Z,100.00
2022-08-26T04:36:41.921Z,100.00
2022-08-26T04:39:08.970Z,100.00
2022-08-26T04:41:35.415Z,100.00
2022-08-26T04:44:02.446Z,100.00
2022-08-26T04:46:29.446Z,100.00
2022-08-26T04:48:56.018Z,100.00
2022-08-26T04:51:27.991Z,100.00
2022-08-26T04:53:57.044Z,100.00
2022-08-26T04:56:31.208Z,100.00
2022-08-26T04:58:57.639Z,100.00
2022-08-26T05:01:24.321Z,100.00
2022-08-26T05:03:50.890Z,100.00
2022-08-26T05:06:19.104Z,100.00
2022-08-26T05:08:45.603Z,100.00
2022-08-26T05:11:12.019Z,100.00
2022-08-26T05:13:39.229Z,100.00
2022-08-26T05:16:06.507Z,100.00
2022-08-26T05:18:34.189Z,100.00
2022-08-26T05:21:02.621Z,100.00
2022-08-26T05:23:31.984Z,100.00
2022-08-26T05:25:59.461Z,100.00
2022-08-26T05:28:28.365Z,100.00
2022-08-26T05:30:55.588Z,100.00
2022-08-26T05:33:22.236Z,100.00
2022-08-26T05:35:48.682Z,100.00
2022-08-26T05:38:17.023Z,100.00
2022-08-26T05:40:44.776Z,100.00
2022-08-26T05:43:11.981Z,100.00
2022-08-26T05:45:44.843Z,100.00
2022-08-26T05:48:12.795Z,100.00
2022-08-26T05:50:40.219Z,100.00
2022-08-26T05:53:07.824Z,100.00
2022-08-26T05:55:35.104Z,100.00
2022-08-26T05:58:02.723Z,100.00
2022-08-26T06:00:29.277Z,100.00
2022-08-26T06:02:55.776Z,100.00
2022-08-26T06:05:22.403Z,100.00
2022-08-26T06:08:07.988Z,100.00
2022-08-26T06:10:37.740Z,100.00
2022-08-26T06:13:11.854Z,100.00
2022-08-26T06:15:45.680Z,100.00
2022-08-26T06:18:12.553Z,100.00
2022-08-26T06:20:43.618Z,100.00
2022-08-26T06:23:41.966Z,100.00
2022-08-26T06:26:08.395Z,100.00
2022-08-26T06:28:37.532Z,100.00
2022-08-26T06:31:04.066Z,100.00
2022-08-26T06:33:31.289Z,100.00
2022-08-26T06:35:57.760Z,100.00
2022-08-26T06:38:25.491Z,100.00
2022-08-26T06:40:53.175Z,100.00
2022-08-26T06:43:22.594Z,100.00
2022-08-26T06:45:50.163Z,100.00
2022-08-26T06:48:18.984Z,100.00
2022-08-26T06:50:45.437Z,100.00
2022-08-26T06:53:13.414Z,100.00
2022-08-26T06:55:41.532Z,100.00
2022-08-26T06:58:09.524Z,100.00
2022-08-26T07:00:36.905Z,100.00
2022-08-26T07:03:05.511Z,100.00
2022-08-26T07:05:35.051Z,100.00
2022-08-26T07:08:01.815Z,100.00
2022-08-26T07:10:29.601Z,100.00
2022-08-26T07:12:56.040Z,100.00
2022-08-26T07:15:27.182Z,100.00
2022-08-26T07:17:57.832Z,100.00
2022-08-26T07:20:24.298Z,100.00
2022-08-26T07:22:51.492Z,100.00
2022-08-26T07:25:17.909Z,100.00
2022-08-26T07:27:45.853Z,100.00
2022-08-26T07:30:20.364Z,100.00
2022-08-26T07:32:46.855Z,100.00
2022-08-26T07:35:14.062Z,100.00
2022-08-26T07:37:40.627Z,100.00
2022-08-26T07:40:07.309Z,100.00
2022-08-26T07:42:35.852Z,100.00
2022-08-26T07:45:02.269Z,100.00
2022-08-26T07:47:28.932Z,100.00
2022-08-26T07:49:55.674Z,100.00
2022-08-26T07:52:26.356Z,100.00
2022-08-26T07:54:53.269Z,100.00
2022-08-26T07:57:19.716Z,100.00
2022-08-26T07:59:47.394Z,100.00
2022-08-26T08:02:13.844Z,100.00
2022-08-26T08:04:40.275Z,100.00
2022-08-26T08:07:10.573Z,100.00
2022-08-26T08:09:38.414Z,100.00
2022-08-26T08:12:07.318Z,100.00
2022-08-26T08:14:36.471Z,100.00
2022-08-26T08:17:03.838Z,100.00
2022-08-26T08:19:36.710Z,100.00
2022-08-26T08:22:06.868Z,100.00
2022-08-26T08:24:44.078Z,100.00
2022-08-26T08:27:10.763Z,100.00
2022-08-26T08:29:37.482Z,100.00
2022-08-26T08:32:04.992Z,100.00
2022-08-26T08:34:31.549Z,100.00
2022-08-26T08:36:58.391Z,100.00
2022-08-26T08:39:25.303Z,100.00
2022-08-26T08:41:54.914Z,100.00
2022-08-26T08:46:51.033Z,100.00
2022-08-26T08:49:17.614Z,100.00
2022-08-26T08:51:50.843Z,100.00
2022-08-26T08:54:17.549Z,100.00
2022-08-26T08:56:55.011Z,100.00
2022-08-26T08:59:26.005Z,100.00
2022-08-26T09:01:54.018Z,100.00
2022-08-26T09:04:30.331Z,100.00
2022-08-26T09:09:29.692Z,100.00
2022-08-26T09:11:56.476Z,100.00
2022-08-26T09:14:22.939Z,100.00
2022-08-26T09:17:12.721Z,100.00
2022-08-26T09:20:02.202Z,100.00
2022-08-26T09:22:32.032Z,100.00
2022-08-26T09:24:58.546Z,100.00
2022-08-26T09:27:45.791Z,100.00
2022-08-26T09:30:20.097Z,100.00
2022-08-26T09:32:57.331Z,100.00
2022-08-26T09:35:28.853Z,100.00
2022-08-26T09:37:55.563Z,100.00
2022-08-26T09:40:27.786Z,100.00
2022-08-26T09:43:28.560Z,100.00
2022-08-26T09:45:59.598Z,100.00
2022-08-26T09:48:32.339Z,100.00
2022-08-26T09:51:03.744Z,86.75
2022-08-26T09:53:32.271Z,81.67
2022-08-26T09:56:12.969Z,73.35
2022-08-26T09:58:40.462Z,60.49
2022-08-26T10:01:09.549Z,54.22
2022-08-26T10:03:37.132Z,46.25
2022-08-26T10:06:07.538Z,45.70
2022-08-26T10:08:37.818Z,44.58
2022-08-26T10:11:07.312Z,42.79
2022-08-26T10:13:35.027Z,41.31
2022-08-26T10:16:05.654Z,40.48
2022-08-26T10:18:39.977Z,39.36
2022-08-26T10:21:19.934Z,43.44
2022-08-26T10:23:51.283Z,51.36
2022-08-26T10:26:20.907Z,50.32
2022-08-26T10:29:07.594Z,49.49
2022-08-26T10:31:47.859Z,45.25
2022-08-26T10:34:18.213Z,43.56
2022-08-26T10:37:13.504Z,41.37
2022-08-26T10:39:43.191Z,40.58
2022-08-26T10:42:10.939Z,42.48
2022-08-26T10:44:37.876Z,40.52
2022-08-26T10:47:18.719Z,37.36
2022-08-26T10:49:45.948Z,35.62
2022-08-26T10:52:21.518Z,36.59
2022-08-26T10:54:50.832Z,35.50
2022-08-26T10:57:21.642Z,33.71
2022-08-26T10:59:48.326Z,34.32
2022-08-26T11:02:22.779Z,38.04
2022-08-26T11:04:53.357Z,41.79
2022-08-26T11:07:29.967Z,43.54
2022-08-26T11:09:58.953Z,40.50
2022-08-26T11:12:34.476Z,37.08
2022-08-26T11:15:02.535Z,34.44
2022-08-26T11:17:44.069Z,32.48
2022-08-26T11:20:23.776Z,34.09
2022-08-26T11:22:51.346Z,34.38
2022-08-26T11:25:18.484Z,32.36
2022-08-26T11:27:45.076Z,29.64
2022-08-26T11:30:15.809Z,29.18
2022-08-26T11:32:46.764Z,28.32
2022-08-26T11:35:19.189Z,27.56
2022-08-26T11:37:46.676Z,29.69
2022-08-26T11:40:14.366Z,31.37
2022-08-26T11:42:42.640Z,32.30
2022-08-26T11:45:23.446Z,31.79
2022-08-26T11:47:50.069Z,29.67
2022-08-26T11:50:19.613Z,28.40
2022-08-26T11:52:52.973Z,27.21
2022-08-26T11:55:20.109Z,27.72
2022-08-26T11:57:51.092Z,29.05
2022-08-26T12:00:22.256Z,29.86
2022-08-26T12:02:49.085Z,30.28
2022-08-26T12:05:17.325Z,31.02
2022-08-26T12:07:44.254Z,30.13
2022-08-26T12:10:11.241Z,29.07
2022-08-26T12:12:40.249Z,27.70
2022-08-26T12:15:06.862Z,27.45
2022-08-26T12:17:33.328Z,26.03
2022-08-26T12:19:59.791Z,25.12
2022-08-26T12:22:27.244Z,26.26
2022-08-26T12:25:07.388Z,27.30
2022-08-26T12:27:39.893Z,29.33
2022-08-26T12:30:12.399Z,29.29
2022-08-26T12:32:57.915Z,29.93
2022-08-26T12:35:24.843Z,29.04
2022-08-26T12:37:51.982Z,27.08
2022-08-26T12:40:30.870Z,29.19
2022-08-26T12:43:00.266Z,30.88
2022-08-26T12:45:28.553Z,34.72
2022-08-26T12:47:56.233Z,32.94
2022-08-26T12:50:27.048Z,32.48
2022-08-26T12:52:57.373Z,30.35
2022-08-26T12:55:23.780Z,30.53
2022-08-26T12:57:50.308Z,31.87
2022-08-26T13:00:28.464Z,33.10
2022-08-26T13:02:55.130Z,37.32
2022-08-26T13:05:33.238Z,37.33
2022-08-26T13:08:10.567Z,33.93
2022-08-26T13:10:37.765Z,30.26
2022-08-26T13:13:04.239Z,29.55
2022-08-26T13:15:30.735Z,34.12
2022-08-26T13:17:58.485Z,36.91
2022-08-26T13:20:25.008Z,39.08
2022-08-26T13:22:53.807Z,43.93
2022-08-26T13:25:25.429Z,46.00
2022-08-26T13:27:51.866Z,49.11
2022-08-26T13:30:18.313Z,51.61
2022-08-26T13:32:44.745Z,54.16
2022-08-26T13:35:11.503Z,57.86
2022-08-26T13:37:37.909Z,60.21
2022-08-26T13:40:05.554Z,61.79
2022-08-26T13:42:31.997Z,60.83
2022-08-26T13:44:59.731Z,61.31
2022-08-26T13:47:27.154Z,63.86
2022-08-26T13:49:54.483Z,62.10
2022-08-26T13:52:29.150Z,61.91
2022-08-26T13:54:57.316Z,62.57
2022-08-26T13:57:24.702Z,64.71
2022-08-26T13:59:51.732Z,64.46
2022-08-26T14:02:18.159Z,62.18
2022-08-26T14:04:44.614Z,63.06
2022-08-26T14:07:11.033Z,62.34
2022-08-26T14:09:38.501Z,60.54
2022-08-26T14:12:05.059Z,61.79
2022-08-26T14:14:31.494Z,62.22
2022-08-26T14:16:59.482Z,61.62
2022-08-26T14:19:26.372Z,62.68
2022-08-26T14:21:53.924Z,66.17
2022-08-26T14:24:20.355Z,67.81
2022-08-26T14:26:48.486Z,68.48
2022-08-26T14:29:16.763Z,70.04
2022-08-26T14:31:43.545Z,67.51
2022-08-26T14:34:10.053Z,67.00
2022-08-26T14:36:36.629Z,68.15
2022-08-26T14:39:04.876Z,73.55
2022-08-26T14:41:31.667Z,73.81
2022-08-26T14:44:05.599Z,73.82
2022-08-26T14:46:33.440Z,74.88
2022-08-26T14:49:01.507Z,77.99
2022-08-26T14:51:28.531Z,82.56
2022-08-26T14:54:13.240Z,86.37
2022-08-26T14:56:46.192Z,90.31
2022-08-26T14:59:17.542Z,100.00
2022-08-26T15:01:44.151Z,100.00
2022-08-26T15:04:10.694Z,100.00
2022-08-26T15:06:37.163Z,100.00
2022-08-26T15:09:03.923Z,100.00
2022-08-26T15:11:30.409Z,100.00
2022-08-26T15:13:57.351Z,99.32
2022-08-26T15:16:24.093Z,96.75
2022-08-26T15:18:51.552Z,99.84
2022-08-26T15:21:19.301Z,100.00
2022-08-26T15:23:47.674Z,100.00
2022-08-26T15:26:14.996Z,100.00
2022-08-26T15:28:41.484Z,100.00
2022-08-26T15:31:08.358Z,100.00
2022-08-26T15:33:35.247Z,100.00
2022-08-26T15:36:02.523Z,100.00
2022-08-26T15:38:30.111Z,100.00
2022-08-26T15:40:58.744Z,100.00
2022-08-26T15:43:29.340Z,100.00
2022-08-26T15:45:56.002Z,100.00
2022-08-26T15:48:22.545Z,100.00
2022-08-26T15:50:50.500Z,100.00
2022-08-26T15:53:17.382Z,100.00
2022-08-26T15:55:43.831Z,100.00
2022-08-26T15:58:10.457Z,100.00
2022-08-26T16:00:37.146Z,100.00
2022-08-26T16:03:03.923Z,100.00
2022-08-26T16:05:30.363Z,100.00
2022-08-26T16:07:56.832Z,100.00
2022-08-26T16:10:23.264Z,100.00
2022-08-26T16:12:49.800Z,100.00
2022-08-26T16:15:16.781Z,100.00
2022-08-26T16:17:43.238Z,100.00
2022-08-26T16:20:09.739Z,100.00
2022-08-26T16:22:36.278Z,100.00
2022-08-26T16:25:02.786Z,100.00
2022-08-26T16:27:29.280Z,100.00
2022-08-26T16:29:55.840Z,100.00
2022-08-26T16:32:22.304Z,100.00
2022-08-26T16:34:56.654Z,100.00
2022-08-26T16:37:23.533Z,100.00
2022-08-26T16:39:50.010Z,100.00
2022-08-26T16:42:16.498Z,100.00
2022-08-26T16:44:45.834Z,100.00
2022-08-26T16:47:13.041Z,100.00
2022-08-26T16:49:39.630Z,100.00
2022-08-26T16:52:06.403Z,100.00
2022-08-26T16:54:32.857Z,100.00
2022-08-26T16:56:59.344Z,100.00
2022-08-26T16:59:25.921Z,100.00
2022-08-26T17:01:52.418Z,100.00
2022-08-26T17:04:19.750Z,100.00
2022-08-26T17:06:46.380Z,100.00
2022-08-26T17:09:12.806Z,100.00
2022-08-26T17:11:39.254Z,100.00
2022-08-26T17:14:05.732Z,100.00
2022-08-26T17:16:32.416Z,100.00
2022-08-26T17:18:59.247Z,100.00
2022-08-26T17:21:26.293Z,100.00
2022-08-26T17:23:52.951Z,100.00
2022-08-26T17:26:19.387Z,100.00
2022-08-26T17:28:45.819Z,100.00
2022-08-26T17:31:13.049Z,100.00
2022-08-26T17:33:39.699Z,100.00
2022-08-26T17:36:07.048Z,100.00
2022-08-26T17:38:33.741Z,100.00
2022-08-26T17:41:00.207Z,100.00
2022-08-26T17:43:26.901Z,100.00
2022-08-26T17:46:07.223Z,100.00
2022-08-26T17:48:34.209Z,100.00
2022-08-26T17:51:00.690Z,100.00
2022-08-26T17:53:27.131Z,100.00
2022-08-26T17:55:53.618Z,100.00
2022-08-26T17:58:23.222Z,100.00
2022-08-26T18:00:51.318Z,100.00
2022-08-26T18:03:19.026Z,100.00
2022-08-26T18:05:49.397Z,100.00
2022-08-26T18:08:15.868Z,100.00
2022-08-26T18:10:42.989Z,100.00
2022-08-26T18:13:09.578Z,100.00
2022-08-26T18:15:38.768Z,100.00
2022-08-26T18:18:05.452Z,100.00
2022-08-26T18:20:31.893Z,100.00
2022-08-26T18:22:58.325Z,100.00
2022-08-26T18:25:24.789Z,100.00
2022-08-26T18:27:51.633Z,100.00
2022-08-26T18:30:20.662Z,100.00
2022-08-26T18:32:50.491Z,100.00
2022-08-26T18:35:16.934Z,100.00
2022-08-26T18:37:44.390Z,100.00
2022-08-26T18:40:11.813Z,100.00
2022-08-26T18:42:38.487Z,100.00
2022-08-26T18:45:05.762Z,100.00
2022-08-26T18:47:32.299Z,100.00
2022-08-26T18:49:58.774Z,100.00
2022-08-26T18:52:25.319Z,100.00
2022-08-26T18:54:51.819Z,100.00
2022-08-26T18:57:18.271Z,100.00
2022-08-26T18:59:44.713Z,100.00
2022-08-26T19:02:11.245Z,100.00
2022-08-26T19:04:40.941Z,100.00
2022-08-26T19:07:07.636Z,100.00
2022-08-26T19:09:34.321Z,100.00
2022-08-26T19:12:03.086Z,100.00
2022-08-26T19:14:29.772Z,100.00
2022-08-26T19:16:56.285Z,100.00
2022-08-26T19:19:25.686Z,100.00
2022-08-26T19:21:52.598Z,100.00
2022-08-26T19:24:19.094Z,100.00
2022-08-26T19:26:47.619Z,100.00
2022-08-26T19:29:15.243Z,100.00
2022-08-26T19:31:42.320Z,100.00
2022-08-26T19:34:10.564Z,100.00
2022-08-26T19:36:37.767Z,100.00
2022-08-26T19:39:05.356Z,100.00
2022-08-26T19:41:37.479Z,100.00
2022-08-26T19:44:05.812Z,100.00
2022-08-26T19:46:32.323Z,100.00
2022-08-26T19:48:58.896Z,100.00
2022-08-26T19:51:26.476Z,100.00
2022-08-26T19:53:53.341Z,100.00
2022-08-26T19:56:20.342Z,100.00
2022-08-26T19:58:46.814Z,100.00
2022-08-26T20:01:13.662Z,100.00
2022-08-26T20:03:40.679Z,100.00
2022-08-26T20:06:07.925Z,100.00
2022-08-26T20:08:34.935Z,100.00
2022-08-26T20:11:05.862Z,100.00
2022-08-26T20:13:32.702Z,100.00
2022-08-26T20:15:59.171Z,100.00
2022-08-26T20:18:44.297Z,100.00
2022-08-26T20:21:29.449Z,100.00
2022-08-26T20:23:58.346Z,100.00
2022-08-26T20:26:26.398Z,100.00
2022-08-26T20:28:52.837Z,100.00
2022-08-26T20:31:19.570Z,100.00
2022-08-26T20:33:46.771Z,100.00
2022-08-26T20:36:13.557Z,100.00
2022-08-26T20:38:39.990Z,100.00
2022-08-26T20:41:06.433Z,100.00
2022-08-26T20:43:32.847Z,100.00
2022-08-26T20:46:00.172Z,100.00
2022-08-26T20:48:26.675Z,100.00
2022-08-26T20:50:56.217Z,100.00
2022-08-26T20:53:22.644Z,100.00
2022-08-26T20:55:53.748Z,100.00
2022-08-26T20:58:20.719Z,100.00
2022-08-26T21:00:47.243Z,100.00
2022-08-26T21:03:14.343Z,100.00
2022-08-26T21:05:40.820Z,100.00
2022-08-26T21:08:07.244Z,100.00
2022-08-26T21:10:33.880Z,100.00
2022-08-26T21:13:00.486Z,100.00
2022-08-26T21:15:26.945Z,100.00
2022-08-26T21:17:53.371Z,100.00
2022-08-26T21:20:19.915Z,100.00
2022-08-26T21:22:46.566Z,100.00
2022-08-26T21:25:13.030Z,100.00
2022-08-26T21:27:39.494Z,100.00
2022-08-26T21:30:06.165Z,100.00
2022-08-26T21:32:32.596Z,100.00
2022-08-26T21:34:59.739Z,100.00
2022-08-26T21:37:27.143Z,100.00
2022-08-26T21:39:54.467Z,100.00
2022-08-26T21:42:20.958Z,100.00
2022-08-26T21:44:52.799Z,100.00
2022-08-26T21:47:22.585Z,100.00
2022-08-26T21:49:49.103Z,100.00
2022-08-26T21:52:15.524Z,100.00
2022-08-26T21:54:41.989Z,100.00
2022-08-26T21:57:15.967Z,100.00
2022-08-26T21:59:42.474Z,100.00
2022-08-26T22:02:08.982Z,100.00
2022-08-26T22:04:35.811Z,100.00
2022-08-26T22:07:02.252Z,100.00
2022-08-26T22:09:30.849Z,100.00
2022-08-26T22:11:57.999Z,100.00
2022-08-26T22:14:30.778Z,100.00
2022-08-26T22:16:57.974Z,100.00
2022-08-26T22:19:24.549Z,100.00
2022-08-26T22:21:52.919Z,100.00
2022-08-26T22:24:19.903Z,100.00
2022-08-26T22:26:46.789Z,100.00
2022-08-26T22:29:13.286Z,100.00
2022-08-26T22:31:40.226Z,100.00
2022-08-26T22:34:07.901Z,100.00
2022-08-26T22:36:34.386Z,100.00
2022-08-26T22:39:01.034Z,100.00
2022-08-26T22:41:27.809Z,100.00
2022-08-26T22:43:54.481Z,100.00
2022-08-26T22:46:25.118Z,100.00
2022-08-26T22:48:53.875Z,100.00
2022-08-26T22:51:20.782Z,100.00
2022-08-26T22:53:47.354Z,100.00
2022-08-26T22:56:14.207Z,100.00
2022-08-26T22:58:40.967Z,100.00
2022-08-26T23:01:07.727Z,100.00
2022-08-26T23:03:34.265Z,100.00
2022-08-26T23:06:01.001Z,100.00
2022-08-26T23:08:27.548Z,100.00
2022-08-26T23:10:54.017Z,100.00
2022-08-26T23:13:20.472Z,100.00
2022-08-26T23:15:46.944Z,100.00
2022-08-26T23:18:14.115Z,100.00
2022-08-26T23:20:40.773Z,100.00
2022-08-26T23:23:07.363Z,100.00
2022-08-26T23:25:33.887Z,100.00
2022-08-26T23:28:00.572Z,100.00
2022-08-26T23:30:27.967Z,100.00
2022-08-26T23:32:54.416Z,100.00
2022-08-26T23:35:21.570Z,100.00
2022-08-26T23:37:50.135Z,100.00
2022-08-26T23:40:27.641Z,100.00
2022-08-26T23:42:54.869Z,100.00
2022-08-26T23:45:21.955Z,100.00
2022-08-26T23:47:50.507Z,100.00
2022-08-26T23:50:17.971Z,100.00
2022-08-26T23:53:05.680Z,100.00
2022-08-26T23:55:39.058Z,100.00
2022-08-26T23:58:05.729Z,100.00
